Pine Galaxy — C6TT5 — position and weather

sailwx.info

Track history (hours):
 
Tides and Currents Weather Stations Pressure Air Temp Water Temp Dewpoint Dewpoint Depression Visibility Wind Speed Wind Dir Waves Ship Positions

Pine Galaxy

Last reported at 2016-May-24 12:33 UTC. Time now 2016-May-25 11:05 UTC.
Position N 38°04' W 122°15'.

Length 147 m; draft 6.9 m.

Type: Tanker. MMSI: 311772000.

Date/timePositionNaut miles runAvg speedWind from/ knotsBaromVisibWave heightAir tempDewpointWater temp
2016-May-24 12:33N 38°04' W 122°15'8 7.7
2016-May-24 11:34N 38°01' W 122°24'7 6.4
2016-May-24 10:33N 37°54' W 122°27'7 7.3
2016-May-24 09:33N 37°48' W 122°31'1110.8
2016-May-24 08:33N 37°43' W 122°43'9 8.9
2016-May-24 07:33N 37°38' W 122°52'1110.7
2016-May-24 06:33N 37°32' W 123°03'10 9.7
2016-May-24 05:30N 37°27' W 123°15'18 7.6
2016-May-24 03:10N 37°12' W 123°27'  
Track history (hours):
 
Tides and Currents Weather Stations Pressure Air Temp Water Temp Dewpoint Dewpoint Depression Visibility Wind Speed Wind Dir Waves Ship Positions

Pine Galaxy

Last reported at 2016-May-24 12:33 UTC. Time now 2016-May-25 11:05 UTC.
Position N 38°04' W 122°15'.

Length 147 m; draft 6.9 m.

Type: Tanker. MMSI: 311772000.

Date/timePositionNaut miles runAvg speedWind from/ knotsBaromVisibWave heightAir tempDewpointWater temp
2016-May-24 12:33N 38°04' W 122°15'8 7.7
2016-May-24 11:34N 38°01' W 122°24'7 6.4
2016-May-24 10:33N 37°54' W 122°27'7 7.3
2016-May-24 09:33N 37°48' W 122°31'1110.8
2016-May-24 08:33N 37°43' W 122°43'9 8.9
2016-May-24 07:33N 37°38' W 122°52'1110.7
2016-May-24 06:33N 37°32' W 123°03'10 9.7
2016-May-24 05:30N 37°27' W 123°15'18 7.6
2016-May-24 03:10N 37°12' W 123°27'  

Dump ship's entire track history